createdAt,value
2023-08-07T00:02:01.999Z,100.00
2023-08-07T00:04:29.413Z,100.00
2023-08-07T00:06:56.247Z,100.00
2023-08-07T00:09:23.224Z,100.00
2023-08-07T00:11:50.366Z,100.00
2023-08-07T00:14:17.336Z,100.00
2023-08-07T00:16:44.182Z,100.00
2023-08-07T00:19:10.854Z,100.00
2023-08-07T00:21:38.978Z,100.00
2023-08-07T00:24:05.991Z,100.00
2023-08-07T00:26:33.477Z,100.00
2023-08-07T00:29:00.169Z,100.00
2023-08-07T00:31:27.126Z,100.00
2023-08-07T00:33:55.503Z,100.00
2023-08-07T00:36:22.314Z,100.00
2023-08-07T00:38:48.931Z,100.00
2023-08-07T00:41:20.417Z,100.00
2023-08-07T00:43:47.091Z,100.00
2023-08-07T00:46:13.602Z,100.00
2023-08-07T00:48:40.449Z,100.00
2023-08-07T00:51:09.076Z,100.00
2023-08-07T00:53:39.582Z,100.00
2023-08-07T00:56:06.768Z,100.00
2023-08-07T00:58:34.457Z,100.00
2023-08-07T01:01:01.338Z,100.00
2023-08-07T01:03:28.056Z,100.00
2023-08-07T01:05:55.281Z,100.00
2023-08-07T01:08:22.301Z,100.00
2023-08-07T01:11:09.705Z,100.00
2023-08-07T01:13:45.484Z,100.00
2023-08-07T01:16:20.778Z,100.00
2023-08-07T01:18:48.319Z,100.00
2023-08-07T01:21:21.289Z,100.00
2023-08-07T01:23:49.156Z,100.00
2023-08-07T01:26:20.906Z,100.00
2023-08-07T01:28:58.886Z,100.00
2023-08-07T01:31:27.041Z,100.00
2023-08-07T01:34:05.639Z,100.00
2023-08-07T01:36:33.444Z,100.00
2023-08-07T01:39:02.096Z,100.00
2023-08-07T01:41:29.529Z,100.00
2023-08-07T01:43:56.330Z,100.00
2023-08-07T01:46:23.001Z,100.00
2023-08-07T01:48:50.240Z,100.00
2023-08-07T01:51:17.209Z,100.00
2023-08-07T01:53:43.903Z,100.00
2023-08-07T01:56:10.446Z,100.00
2023-08-07T01:58:37.299Z,100.00
2023-08-07T02:01:04.397Z,100.00
2023-08-07T02:03:31.349Z,100.00
2023-08-07T02:05:58.398Z,100.00
2023-08-07T02:08:25.302Z,100.00
2023-08-07T02:10:52.368Z,100.00
2023-08-07T02:13:19.475Z,100.00
2023-08-07T02:15:46.184Z,100.00
2023-08-07T02:18:13.260Z,100.00
2023-08-07T02:20:39.936Z,100.00
2023-08-07T02:23:06.810Z,100.00
2023-08-07T02:25:33.417Z,100.00
2023-08-07T02:28:00.053Z,100.00
2023-08-07T02:30:26.764Z,100.00
2023-08-07T02:32:53.591Z,100.00
2023-08-07T02:35:20.199Z,100.00
2023-08-07T02:37:47.108Z,100.00
2023-08-07T02:40:16.375Z,100.00
2023-08-07T02:42:43.608Z,100.00
2023-08-07T02:45:10.360Z,100.00
2023-08-07T02:47:37.177Z,100.00
2023-08-07T02:50:03.984Z,100.00
2023-08-07T02:52:31.009Z,100.00
2023-08-07T02:54:57.981Z,100.00
2023-08-07T02:57:25.982Z,100.00
2023-08-07T02:59:53.085Z,100.00
2023-08-07T03:02:19.907Z,100.00
2023-08-07T03:04:46.705Z,100.00
2023-08-07T03:07:13.244Z,100.00
2023-08-07T03:09:39.907Z,100.00
2023-08-07T03:12:06.852Z,100.00
2023-08-07T03:14:33.783Z,100.00
2023-08-07T03:17:00.758Z,100.00
2023-08-07T03:19:27.782Z,100.00
2023-08-07T03:21:54.291Z,100.00
2023-08-07T03:24:21.263Z,100.00
2023-08-07T03:26:48.510Z,100.00
2023-08-07T03:29:15.483Z,100.00
2023-08-07T03:31:42.113Z,100.00
2023-08-07T03:34:08.875Z,100.00
2023-08-07T03:36:36.347Z,100.00
2023-08-07T03:39:04.230Z,100.00
2023-08-07T03:41:30.837Z,100.00
2023-08-07T03:43:57.793Z,100.00
2023-08-07T03:46:24.604Z,100.00
2023-08-07T03:48:51.492Z,100.00
2023-08-07T03:51:18.462Z,100.00
2023-08-07T03:53:45.585Z,100.00
2023-08-07T03:56:12.322Z,100.00
2023-08-07T03:58:39.119Z,100.00
2023-08-07T04:01:06.049Z,100.00
2023-08-07T04:03:32.951Z,100.00
2023-08-07T04:06:03.048Z,100.00
2023-08-07T04:08:29.987Z,100.00
2023-08-07T04:11:04.196Z,100.00
2023-08-07T04:13:31.811Z,100.00
2023-08-07T04:15:59.098Z,100.00
2023-08-07T04:18:25.788Z,100.00
2023-08-07T04:20:56.495Z,100.00
2023-08-07T04:23:23.936Z,100.00
2023-08-07T04:25:54.360Z,100.00
2023-08-07T04:28:21.481Z,100.00
2023-08-07T04:30:54.645Z,100.00
2023-08-07T04:33:21.889Z,100.00
2023-08-07T04:35:48.574Z,100.00
2023-08-07T04:38:16.786Z,100.00
2023-08-07T04:40:50.380Z,100.00
2023-08-07T04:43:19.253Z,100.00
2023-08-07T04:45:46.749Z,100.00
2023-08-07T04:48:14.726Z,100.00
2023-08-07T04:50:42.519Z,100.00
2023-08-07T04:53:09.546Z,100.00
2023-08-07T04:55:36.864Z,100.00
2023-08-07T04:58:03.946Z,100.00
2023-08-07T05:00:30.680Z,100.00
2023-08-07T05:02:57.776Z,100.00
2023-08-07T05:05:25.153Z,100.00
2023-08-07T05:07:52.435Z,100.00
2023-08-07T05:10:19.531Z,100.00
2023-08-07T05:12:46.355Z,100.00
2023-08-07T05:15:13.057Z,100.00
2023-08-07T05:17:39.736Z,100.00
2023-08-07T05:20:07.355Z,100.00
2023-08-07T05:22:34.207Z,100.00
2023-08-07T05:25:01.039Z,100.00
2023-08-07T05:27:27.707Z,100.00
2023-08-07T05:29:54.632Z,100.00
2023-08-07T05:32:21.236Z,100.00
2023-08-07T05:34:48.197Z,100.00
2023-08-07T05:37:15.028Z,100.00
2023-08-07T05:39:42.037Z,100.00
2023-08-07T05:42:10.658Z,100.00
2023-08-07T05:44:37.536Z,100.00
2023-08-07T05:47:04.544Z,100.00
2023-08-07T05:49:31.272Z,100.00
2023-08-07T05:51:58.253Z,100.00
2023-08-07T05:54:25.674Z,100.00
2023-08-07T05:56:52.549Z,100.00
2023-08-07T05:59:19.326Z,100.00
2023-08-07T06:01:45.948Z,100.00
2023-08-07T06:04:12.688Z,100.00
2023-08-07T06:06:40.922Z,100.00
2023-08-07T06:09:07.967Z,100.00
2023-08-07T06:11:34.844Z,100.00
2023-08-07T06:14:02.213Z,100.00
2023-08-07T06:16:29.227Z,100.00
2023-08-07T06:18:55.894Z,100.00
2023-08-07T06:21:22.493Z,100.00
2023-08-07T06:23:49.464Z,100.00
2023-08-07T06:26:16.254Z,100.00
2023-08-07T06:28:43.847Z,100.00
2023-08-07T06:31:12.413Z,100.00
2023-08-07T06:33:38.985Z,100.00
2023-08-07T06:36:06.198Z,100.00
2023-08-07T06:38:33.296Z,100.00
2023-08-07T06:41:00.034Z,100.00
2023-08-07T06:43:27.051Z,100.00
2023-08-07T06:45:55.781Z,100.00
2023-08-07T06:48:23.158Z,100.00
2023-08-07T06:50:52.709Z,100.00
2023-08-07T06:53:20.301Z,100.00
2023-08-07T06:55:47.579Z,98.76
2023-08-07T06:58:14.602Z,98.41
2023-08-07T07:00:41.975Z,98.46
2023-08-07T07:03:10.984Z,97.47
2023-08-07T07:05:37.795Z,96.35
2023-08-07T07:08:04.557Z,95.35
2023-08-07T07:10:31.438Z,95.28
2023-08-07T07:12:58.358Z,95.88
2023-08-07T07:15:25.122Z,95.42
2023-08-07T07:17:52.036Z,95.37
2023-08-07T07:20:19.995Z,94.80
2023-08-07T07:22:47.518Z,94.12
2023-08-07T07:25:14.329Z,93.90
2023-08-07T07:27:41.509Z,93.20
2023-08-07T07:30:09.037Z,92.59
2023-08-07T07:32:36.213Z,92.43
2023-08-07T07:35:02.917Z,91.62
2023-08-07T07:37:31.456Z,91.33
2023-08-07T07:39:58.112Z,90.42
2023-08-07T07:42:24.773Z,89.20
2023-08-07T07:44:51.261Z,89.10
2023-08-07T07:47:18.288Z,89.04
2023-08-07T07:49:48.813Z,88.76
2023-08-07T07:52:15.922Z,88.26
2023-08-07T07:54:43.039Z,86.91
2023-08-07T07:57:09.871Z,86.58
2023-08-07T07:59:36.792Z,86.67
2023-08-07T08:02:03.694Z,86.24
2023-08-07T08:04:30.600Z,86.04
2023-08-07T08:06:57.364Z,83.90
2023-08-07T08:09:24.249Z,83.16
2023-08-07T08:11:50.886Z,83.38
2023-08-07T08:14:18.044Z,83.04
2023-08-07T08:16:44.740Z,81.84
2023-08-07T08:19:12.270Z,81.17
2023-08-07T08:21:40.089Z,81.46
2023-08-07T08:24:08.534Z,81.80
2023-08-07T08:26:35.762Z,82.09
2023-08-07T08:29:02.485Z,82.49
2023-08-07T08:31:29.538Z,81.78
2023-08-07T08:33:56.722Z,81.54
2023-08-07T08:36:23.521Z,82.74
2023-08-07T08:38:50.327Z,82.94
2023-08-07T08:41:27.100Z,84.05
2023-08-07T08:43:55.784Z,84.65
2023-08-07T08:46:25.687Z,84.94
2023-08-07T08:48:57.622Z,84.85
2023-08-07T08:51:25.644Z,84.86
2023-08-07T08:53:57.774Z,85.27
2023-08-07T08:56:25.425Z,84.83
2023-08-07T08:58:52.705Z,83.21
2023-08-07T09:01:20.294Z,83.31
2023-08-07T09:03:47.545Z,83.23
2023-08-07T09:06:15.724Z,84.73
2023-08-07T09:08:44.511Z,89.69
2023-08-07T09:11:15.564Z,92.16
2023-08-07T09:13:44.370Z,97.12
2023-08-07T09:16:13.464Z,100.00
2023-08-07T09:18:41.238Z,100.00
2023-08-07T09:21:08.480Z,100.00
2023-08-07T09:23:34.974Z,100.00
2023-08-07T09:26:03.810Z,100.00
2023-08-07T09:28:31.263Z,100.00
2023-08-07T09:30:58.032Z,100.00
2023-08-07T09:33:28.596Z,100.00
2023-08-07T09:36:04.378Z,100.00
2023-08-07T09:38:35.393Z,100.00
2023-08-07T09:41:04.516Z,100.00
2023-08-07T09:43:36.397Z,100.00
2023-08-07T09:46:09.355Z,100.00
2023-08-07T09:48:44.159Z,100.00
2023-08-07T09:51:11.458Z,100.00
2023-08-07T09:53:38.564Z,100.00
2023-08-07T09:56:05.613Z,100.00
2023-08-07T09:58:32.428Z,98.45
2023-08-07T10:01:10.748Z,98.30
2023-08-07T10:03:38.040Z,96.62
2023-08-07T10:06:05.910Z,96.53
2023-08-07T10:08:33.410Z,97.38
2023-08-07T10:11:01.037Z,97.92
2023-08-07T10:13:39.054Z,98.13
2023-08-07T10:16:07.749Z,97.68
2023-08-07T10:18:36.412Z,97.69
2023-08-07T10:21:06.017Z,97.68
2023-08-07T10:23:36.369Z,97.70
2023-08-07T10:26:07.252Z,98.15
2023-08-07T10:28:38.860Z,97.67
2023-08-07T10:31:07.788Z,97.02
2023-08-07T10:33:35.432Z,97.34
2023-08-07T10:36:10.050Z,95.60
2023-08-07T10:38:37.140Z,94.21
2023-08-07T10:41:08.683Z,94.09
2023-08-07T10:43:40.885Z,95.87
2023-08-07T10:46:11.195Z,96.66
2023-08-07T10:48:45.217Z,97.37
2023-08-07T10:51:16.293Z,92.78
2023-08-07T10:53:47.838Z,90.85
2023-08-07T10:56:36.989Z,90.53
2023-08-07T10:59:11.299Z,89.79
2023-08-07T11:01:44.749Z,90.06
2023-08-07T11:04:15.935Z,90.24
2023-08-07T11:06:47.830Z,88.97
2023-08-07T11:09:14.751Z,88.75
2023-08-07T11:11:42.941Z,89.97
2023-08-07T11:14:15.015Z,91.39
2023-08-07T11:16:42.545Z,92.14
2023-08-07T11:19:09.744Z,92.71
2023-08-07T11:21:38.945Z,92.49
2023-08-07T11:24:05.847Z,90.11
2023-08-07T11:26:32.565Z,89.99
2023-08-07T11:28:59.502Z,89.57
2023-08-07T11:31:26.708Z,89.84
2023-08-07T11:33:55.797Z,91.98
2023-08-07T11:36:23.653Z,93.32
2023-08-07T11:38:50.722Z,90.52
2023-08-07T11:41:19.176Z,87.07
2023-08-07T11:43:46.595Z,85.65
2023-08-07T11:46:16.556Z,84.08
2023-08-07T11:48:45.163Z,81.98
2023-08-07T11:51:12.020Z,79.55
2023-08-07T11:53:43.050Z,75.81
2023-08-07T11:56:17.533Z,73.70
2023-08-07T11:58:49.127Z,73.59
2023-08-07T12:01:24.418Z,71.82
2023-08-07T12:04:09.496Z,70.08
2023-08-07T12:06:37.515Z,69.26
2023-08-07T12:09:04.563Z,67.97
2023-08-07T12:11:31.702Z,66.07
2023-08-07T12:14:01.661Z,64.71
2023-08-07T12:16:34.192Z,65.07
2023-08-07T12:19:00.765Z,63.81
2023-08-07T12:21:27.457Z,62.99
2023-08-07T12:23:57.580Z,62.90
2023-08-07T12:26:24.212Z,65.22
2023-08-07T12:28:51.053Z,66.81
2023-08-07T12:31:18.863Z,66.37
2023-08-07T12:33:45.836Z,64.31
2023-08-07T12:38:44.244Z,61.71
2023-08-07T12:41:44.902Z,61.19
2023-08-07T12:43:57.448Z,60.84
2023-08-07T12:48:53.711Z,60.54
2023-08-07T12:51:22.224Z,61.01
2023-08-07T12:53:48.980Z,59.78
2023-08-07T12:56:15.709Z,58.98
2023-08-07T12:58:42.939Z,56.10
2023-08-07T13:01:10.932Z,56.69
2023-08-07T13:03:37.865Z,56.61
2023-08-07T13:06:07.661Z,55.79
2023-08-07T13:08:36.003Z,55.40
2023-08-07T13:11:03.007Z,53.93
2023-08-07T13:13:29.604Z,53.56
2023-08-07T13:15:56.209Z,53.90
2023-08-07T13:18:23.136Z,53.87
2023-08-07T13:20:50.058Z,53.04
2023-08-07T13:23:16.624Z,52.45
2023-08-07T13:25:43.265Z,52.78
2023-08-07T13:28:10.168Z,53.52
2023-08-07T13:30:37.882Z,54.48
2023-08-07T13:33:05.224Z,55.28
2023-08-07T13:35:34.201Z,55.96
2023-08-07T13:38:01.394Z,55.87
2023-08-07T13:40:28.228Z,56.57
2023-08-07T13:42:55.255Z,56.00
2023-08-07T13:45:21.971Z,55.20
2023-08-07T13:47:49.228Z,53.99
2023-08-07T13:50:16.394Z,52.18
2023-08-07T13:52:43.042Z,52.24
2023-08-07T13:55:10.446Z,52.35
2023-08-07T13:57:37.671Z,51.37
2023-08-07T14:00:05.020Z,51.27
2023-08-07T14:02:32.858Z,50.09
2023-08-07T14:04:59.811Z,50.07
2023-08-07T14:07:26.490Z,49.98
2023-08-07T14:09:53.145Z,49.96
2023-08-07T14:12:19.880Z,50.76
2023-08-07T14:14:46.507Z,51.64
2023-08-07T14:17:13.405Z,51.85
2023-08-07T14:19:40.319Z,51.51
2023-08-07T14:22:07.079Z,52.45
2023-08-07T14:24:33.890Z,51.95
2023-08-07T14:27:00.718Z,52.82
2023-08-07T14:29:27.518Z,53.39
2023-08-07T14:31:54.515Z,53.45
2023-08-07T14:34:21.225Z,52.68
2023-08-07T14:36:48.091Z,50.90
2023-08-07T14:39:14.970Z,49.56
2023-08-07T14:41:41.637Z,48.61
2023-08-07T14:44:08.448Z,47.50
2023-08-07T14:46:35.877Z,46.50
2023-08-07T14:49:02.795Z,46.94
2023-08-07T14:51:29.470Z,47.23
2023-08-07T14:53:55.960Z,47.78
2023-08-07T14:56:23.092Z,47.72
2023-08-07T14:58:49.909Z,46.75
2023-08-07T15:01:16.634Z,45.87
2023-08-07T15:03:44.178Z,45.19
2023-08-07T15:06:11.326Z,43.97
2023-08-07T15:08:37.938Z,43.19
2023-08-07T15:11:04.741Z,43.75
2023-08-07T15:13:32.151Z,45.06
2023-08-07T15:15:58.927Z,46.56
2023-08-07T15:18:25.904Z,47.95
2023-08-07T15:20:52.760Z,49.63
2023-08-07T15:23:20.976Z,49.94
2023-08-07T15:25:47.641Z,49.49
2023-08-07T15:28:14.332Z,49.53
2023-08-07T15:30:47.988Z,50.73
2023-08-07T15:33:14.887Z,51.62
2023-08-07T15:35:41.618Z,52.82
2023-08-07T15:38:08.540Z,53.66
2023-08-07T15:40:35.299Z,53.96
2023-08-07T15:43:01.916Z,54.95
2023-08-07T15:45:28.370Z,54.59
2023-08-07T15:47:55.146Z,54.46
2023-08-07T15:50:21.978Z,54.08
2023-08-07T15:52:48.559Z,54.86
2023-08-07T15:55:15.216Z,55.80
2023-08-07T15:57:41.917Z,57.16
2023-08-07T16:00:10.892Z,58.33
2023-08-07T16:02:37.749Z,57.93
2023-08-07T16:05:04.912Z,58.67
2023-08-07T16:07:31.652Z,58.89
2023-08-07T16:09:58.312Z,58.43
2023-08-07T16:12:24.954Z,53.58
2023-08-07T16:14:51.516Z,48.44
2023-08-07T16:17:18.065Z,44.74
2023-08-07T16:19:45.022Z,42.02
2023-08-07T16:22:11.670Z,40.01
2023-08-07T16:24:38.474Z,38.66
2023-08-07T16:27:07.493Z,38.09
2023-08-07T16:29:34.145Z,39.39
2023-08-07T16:32:05.695Z,40.15
2023-08-07T16:34:32.836Z,42.61
2023-08-07T16:36:59.623Z,45.03
2023-08-07T16:39:26.755Z,48.17
2023-08-07T16:41:54.057Z,50.79
2023-08-07T16:44:20.600Z,55.53
2023-08-07T16:46:47.057Z,60.23
2023-08-07T16:49:13.705Z,63.80
2023-08-07T16:51:40.168Z,67.44
2023-08-07T16:54:06.979Z,70.84
2023-08-07T16:56:33.729Z,75.75
2023-08-07T16:59:00.782Z,78.83
2023-08-07T17:01:27.622Z,81.99
2023-08-07T17:03:54.182Z,84.77
2023-08-07T17:06:21.011Z,90.93
2023-08-07T17:08:50.696Z,98.82
2023-08-07T17:11:17.621Z,100.00
2023-08-07T17:13:44.463Z,100.00
2023-08-07T17:16:11.208Z,100.00
2023-08-07T17:18:38.009Z,100.00
2023-08-07T17:21:04.571Z,100.00
2023-08-07T17:23:31.174Z,100.00
2023-08-07T17:25:58.922Z,94.41
2023-08-07T17:28:25.668Z,88.59
2023-08-07T17:30:52.516Z,81.90
2023-08-07T17:33:19.438Z,78.40
2023-08-07T17:35:46.355Z,75.12
2023-08-07T17:38:14.535Z,76.16
2023-08-07T17:40:41.425Z,78.88
2023-08-07T17:43:08.075Z,80.71
2023-08-07T17:45:35.741Z,79.43
2023-08-07T17:48:02.697Z,76.80
2023-08-07T17:50:30.027Z,74.47
2023-08-07T17:52:56.879Z,72.43
2023-08-07T17:55:24.698Z,72.76
2023-08-07T17:57:52.450Z,74.54
2023-08-07T18:00:19.825Z,76.99
2023-08-07T18:02:46.748Z,79.56
2023-08-07T18:05:14.015Z,80.52
2023-08-07T18:07:40.756Z,79.92
2023-08-07T18:10:08.948Z,78.98
2023-08-07T18:12:35.528Z,77.20
2023-08-07T18:15:02.446Z,76.54
2023-08-07T18:17:31.402Z,74.84
2023-08-07T18:19:57.964Z,73.15
2023-08-07T18:22:25.074Z,72.73
2023-08-07T18:24:51.943Z,71.32
2023-08-07T18:27:19.173Z,71.48
2023-08-07T18:29:46.059Z,71.35
2023-08-07T18:32:12.701Z,71.81
2023-08-07T18:34:39.420Z,73.09
2023-08-07T18:37:06.207Z,73.63
2023-08-07T18:39:33.237Z,74.03
2023-08-07T18:42:00.441Z,75.80
2023-08-07T18:44:26.960Z,77.72
2023-08-07T18:46:53.872Z,79.55
2023-08-07T18:49:21.982Z,81.18
2023-08-07T18:51:48.906Z,82.69
2023-08-07T18:54:15.687Z,83.81
2023-08-07T18:56:42.576Z,84.58
2023-08-07T18:59:09.169Z,85.42
2023-08-07T19:01:35.917Z,86.51
2023-08-07T19:04:02.544Z,87.19
2023-08-07T19:06:32.275Z,88.27
2023-08-07T19:08:59.497Z,88.74
2023-08-07T19:11:28.287Z,89.19
2023-08-07T19:13:56.778Z,89.62
2023-08-07T19:16:23.505Z,89.75
2023-08-07T19:18:50.557Z,89.78
2023-08-07T19:21:17.213Z,89.65
2023-08-07T19:23:43.709Z,89.85
2023-08-07T19:26:10.497Z,89.31
2023-08-07T19:28:37.306Z,89.26
2023-08-07T19:31:06.687Z,89.16
2023-08-07T19:33:34.184Z,89.20
2023-08-07T19:36:00.951Z,89.72
2023-08-07T19:38:27.627Z,89.41
2023-08-07T19:40:54.901Z,89.48
2023-08-07T19:43:21.518Z,89.39
2023-08-07T19:45:48.484Z,89.41
2023-08-07T19:48:15.424Z,89.62
2023-08-07T19:50:42.076Z,89.16
2023-08-07T19:53:08.906Z,89.01
2023-08-07T19:55:35.468Z,88.59
2023-08-07T19:58:05.007Z,87.80
2023-08-07T20:00:31.794Z,86.51
2023-08-07T20:02:58.359Z,86.02
2023-08-07T20:05:25.114Z,85.67
2023-08-07T20:07:51.922Z,85.54
2023-08-07T20:10:24.207Z,85.16
2023-08-07T20:12:51.856Z,85.01
2023-08-07T20:15:19.367Z,84.76
2023-08-07T20:17:46.852Z,84.23
2023-08-07T20:20:14.334Z,83.71
2023-08-07T20:22:44.184Z,83.47
2023-08-07T20:25:11.213Z,83.19
2023-08-07T20:27:38.106Z,83.20
2023-08-07T20:30:05.844Z,83.38
2023-08-07T20:32:32.775Z,83.34
2023-08-07T20:34:59.446Z,83.55
2023-08-07T20:37:26.840Z,83.16
2023-08-07T20:39:53.923Z,83.43
2023-08-07T20:42:20.607Z,83.14
2023-08-07T20:44:47.352Z,83.34
2023-08-07T20:47:14.162Z,83.59
2023-08-07T20:49:40.705Z,83.43
2023-08-07T20:52:07.485Z,83.59
2023-08-07T20:54:34.039Z,83.95
2023-08-07T20:57:01.715Z,84.06
2023-08-07T20:59:28.576Z,83.97
2023-08-07T21:01:55.412Z,83.65
2023-08-07T21:04:24.455Z,82.96
2023-08-07T21:06:53.472Z,82.67
2023-08-07T21:09:20.541Z,82.17
2023-08-07T21:11:47.299Z,81.60
2023-08-07T21:14:13.913Z,81.06
2023-08-07T21:16:44.761Z,80.72
2023-08-07T21:19:12.713Z,80.53
2023-08-07T21:21:39.587Z,80.45
2023-08-07T21:24:09.888Z,80.33
2023-08-07T21:26:39.791Z,80.56
2023-08-07T21:29:06.523Z,80.84
2023-08-07T21:31:33.500Z,80.83
2023-08-07T21:34:00.167Z,80.85
2023-08-07T21:36:26.793Z,80.91
2023-08-07T21:38:53.928Z,81.36
2023-08-07T21:41:20.506Z,82.02
2023-08-07T21:43:47.378Z,82.21
2023-08-07T21:46:13.994Z,82.63
2023-08-07T21:48:40.773Z,83.08
2023-08-07T21:51:07.300Z,83.26
2023-08-07T21:53:34.033Z,83.26
2023-08-07T21:56:00.622Z,83.52
2023-08-07T21:58:27.102Z,83.35
2023-08-07T22:00:53.821Z,83.32
2023-08-07T22:03:20.803Z,83.28
2023-08-07T22:05:48.413Z,83.29
2023-08-07T22:08:15.043Z,83.39
2023-08-07T22:10:41.638Z,83.46
2023-08-07T22:13:08.135Z,83.76
2023-08-07T22:15:34.905Z,83.82
2023-08-07T22:18:01.540Z,83.84
2023-08-07T22:20:28.379Z,83.96
2023-08-07T22:22:54.961Z,84.17
2023-08-07T22:25:21.673Z,84.39
2023-08-07T22:27:48.929Z,84.51
2023-08-07T22:30:15.919Z,84.73
2023-08-07T22:32:43.624Z,84.49
2023-08-07T22:35:10.556Z,84.51
2023-08-07T22:37:37.662Z,84.43
2023-08-07T22:40:04.885Z,84.58
2023-08-07T22:42:31.452Z,84.50
2023-08-07T22:44:58.335Z,84.58
2023-08-07T22:47:25.135Z,84.63
2023-08-07T22:49:51.685Z,84.56
2023-08-07T22:52:18.593Z,84.59
2023-08-07T22:54:45.387Z,84.75
2023-08-07T22:57:12.143Z,84.83
2023-08-07T22:59:38.873Z,84.89
2023-08-07T23:02:05.763Z,85.04
2023-08-07T23:04:32.582Z,85.06
2023-08-07T23:06:59.199Z,85.39
2023-08-07T23:09:25.992Z,85.32
2023-08-07T23:11:52.580Z,85.42
2023-08-07T23:14:19.345Z,85.70
2023-08-07T23:16:46.072Z,85.93
2023-08-07T23:19:13.111Z,85.90
2023-08-07T23:21:39.553Z,86.23
2023-08-07T23:24:07.079Z,86.60
2023-08-07T23:26:34.320Z,86.78
2023-08-07T23:29:01.454Z,87.04
2023-08-07T23:31:30.913Z,87.32
2023-08-07T23:33:57.758Z,87.32
2023-08-07T23:36:24.647Z,87.34
2023-08-07T23:38:51.661Z,87.21
2023-08-07T23:41:18.586Z,87.09
2023-08-07T23:43:45.375Z,86.97
2023-08-07T23:46:12.594Z,86.94
2023-08-07T23:48:39.997Z,86.82
2023-08-07T23:51:06.678Z,86.94
2023-08-07T23:53:33.521Z,87.03
2023-08-07T23:56:00.316Z,87.10
2023-08-07T23:58:27.236Z,87.30
